sensor_id;sensor_type;location;lat;lon;timestamp;P1;durP1;ratioP1;P2;durP2;ratioP2
50126;SDS011;36024;47.974;16.398;2024-01-30T00:00:17;21.37;;;15.70;;
50126;SDS011;36024;47.974;16.398;2024-01-30T00:02:46;22.47;;;15.37;;
50126;SDS011;36024;47.974;16.398;2024-01-30T00:05:16;21.17;;;15.30;;
50126;SDS011;36024;47.974;16.398;2024-01-30T00:07:49;19.13;;;16.07;;
50126;SDS011;36024;47.974;16.398;2024-01-30T00:10:18;21.80;;;16.97;;
50126;SDS011;36024;47.974;16.398;2024-01-30T00:12:47;22.40;;;17.27;;
50126;SDS011;36024;47.974;16.398;2024-01-30T00:15:19;24.87;;;17.17;;
50126;SDS011;36024;47.974;16.398;2024-01-30T00:17:50;22.53;;;17.10;;
50126;SDS011;36024;47.974;16.398;2024-01-30T00:20:20;25.77;;;18.23;;
50126;SDS011;36024;47.974;16.398;2024-01-30T00:22:48;23.47;;;17.40;;
50126;SDS011;36024;47.974;16.398;2024-01-30T00:25:22;23.27;;;17.70;;
50126;SDS011;36024;47.974;16.398;2024-01-30T00:27:49;25.73;;;17.40;;
50126;SDS011;36024;47.974;16.398;2024-01-30T00:30:20;25.07;;;17.63;;
50126;SDS011;36024;47.974;16.398;2024-01-30T00:32:51;26.07;;;18.07;;
50126;SDS011;36024;47.974;16.398;2024-01-30T00:35:17;25.50;;;17.93;;
50126;SDS011;36024;47.974;16.398;2024-01-30T00:37:49;26.13;;;18.30;;
50126;SDS011;36024;47.974;16.398;2024-01-30T00:40:16;26.63;;;18.90;;
50126;SDS011;36024;47.974;16.398;2024-01-30T00:42:46;27.87;;;18.67;;
50126;SDS011;36024;47.974;16.398;2024-01-30T00:45:19;25.10;;;18.03;;
50126;SDS011;36024;47.974;16.398;2024-01-30T00:47:49;26.80;;;18.73;;
50126;SDS011;36024;47.974;16.398;2024-01-30T00:50:16;26.97;;;19.23;;
50126;SDS011;36024;47.974;16.398;2024-01-30T00:52:43;50.63;;;27.73;;
50126;SDS011;36024;47.974;16.398;2024-01-30T00:55:11;46.93;;;25.87;;
50126;SDS011;36024;47.974;16.398;2024-01-30T00:57:43;33.60;;;22.07;;
50126;SDS011;36024;47.974;16.398;2024-01-30T01:00:11;30.80;;;21.37;;
50126;SDS011;36024;47.974;16.398;2024-01-30T01:02:50;29.67;;;20.10;;
50126;SDS011;36024;47.974;16.398;2024-01-30T01:05:17;42.13;;;24.57;;
50126;SDS011;36024;47.974;16.398;2024-01-30T01:07:44;49.53;;;27.27;;
50126;SDS011;36024;47.974;16.398;2024-01-30T01:10:14;43.93;;;25.67;;
50126;SDS011;36024;47.974;16.398;2024-01-30T01:12:45;53.50;;;29.07;;
50126;SDS011;36024;47.974;16.398;2024-01-30T01:15:12;36.40;;;23.57;;
50126;SDS011;36024;47.974;16.398;2024-01-30T01:17:42;25.00;;;20.20;;
50126;SDS011;36024;47.974;16.398;2024-01-30T01:20:15;28.33;;;20.70;;
50126;SDS011;36024;47.974;16.398;2024-01-30T01:22:42;27.07;;;20.33;;
50126;SDS011;36024;47.974;16.398;2024-01-30T01:25:11;34.03;;;22.70;;
50126;SDS011;36024;47.974;16.398;2024-01-30T01:27:41;42.53;;;24.70;;
50126;SDS011;36024;47.974;16.398;2024-01-30T01:30:09;48.17;;;28.20;;
50126;SDS011;36024;47.974;16.398;2024-01-30T01:32:37;55.77;;;29.67;;
50126;SDS011;36024;47.974;16.398;2024-01-30T01:35:07;36.40;;;23.47;;
50126;SDS011;36024;47.974;16.398;2024-01-30T01:37:38;28.57;;;20.07;;
50126;SDS011;36024;47.974;16.398;2024-01-30T01:40:07;30.60;;;21.53;;
50126;SDS011;36024;47.974;16.398;2024-01-30T01:42:34;34.87;;;22.70;;
50126;SDS011;36024;47.974;16.398;2024-01-30T01:45:02;86.17;;;35.23;;
50126;SDS011;36024;47.974;16.398;2024-01-30T01:47:29;128.10;;;46.73;;
50126;SDS011;36024;47.974;16.398;2024-01-30T01:49:56;93.87;;;38.50;;
50126;SDS011;36024;47.974;16.398;2024-01-30T01:52:24;71.43;;;33.87;;
50126;SDS011;36024;47.974;16.398;2024-01-30T01:54:50;41.57;;;25.10;;
50126;SDS011;36024;47.974;16.398;2024-01-30T01:57:17;35.10;;;23.10;;
50126;SDS011;36024;47.974;16.398;2024-01-30T01:59:45;32.77;;;21.63;;
50126;SDS011;36024;47.974;16.398;2024-01-30T02:02:12;35.40;;;21.93;;
50126;SDS011;36024;47.974;16.398;2024-01-30T02:04:46;27.10;;;20.10;;
50126;SDS011;36024;47.974;16.398;2024-01-30T02:07:15;27.57;;;20.23;;
50126;SDS011;36024;47.974;16.398;2024-01-30T02:09:42;30.47;;;21.07;;
50126;SDS011;36024;47.974;16.398;2024-01-30T02:12:08;26.53;;;19.10;;
50126;SDS011;36024;47.974;16.398;2024-01-30T02:14:47;29.40;;;19.70;;
50126;SDS011;36024;47.974;16.398;2024-01-30T02:17:15;26.93;;;20.00;;
50126;SDS011;36024;47.974;16.398;2024-01-30T02:19:43;32.47;;;20.07;;
50126;SDS011;36024;47.974;16.398;2024-01-30T02:22:12;26.83;;;19.63;;
50126;SDS011;36024;47.974;16.398;2024-01-30T02:24:39;32.43;;;20.17;;
50126;SDS011;36024;47.974;16.398;2024-01-30T02:27:06;27.77;;;18.97;;
50126;SDS011;36024;47.974;16.398;2024-01-30T02:29:37;25.53;;;18.00;;
50126;SDS011;36024;47.974;16.398;2024-01-30T02:32:04;26.53;;;18.70;;
50126;SDS011;36024;47.974;16.398;2024-01-30T02:34:30;27.00;;;18.80;;
50126;SDS011;36024;47.974;16.398;2024-01-30T02:36:58;27.27;;;19.17;;
50126;SDS011;36024;47.974;16.398;2024-01-30T02:39:25;27.10;;;19.33;;
50126;SDS011;36024;47.974;16.398;2024-01-30T02:41:57;30.53;;;19.53;;
50126;SDS011;36024;47.974;16.398;2024-01-30T02:44:31;27.07;;;18.73;;
50126;SDS011;36024;47.974;16.398;2024-01-30T02:47:00;23.47;;;18.37;;
50126;SDS011;36024;47.974;16.398;2024-01-30T02:49:27;26.03;;;19.10;;
50126;SDS011;36024;47.974;16.398;2024-01-30T02:51:55;27.27;;;18.90;;
50126;SDS011;36024;47.974;16.398;2024-01-30T02:54:23;27.03;;;18.53;;
50126;SDS011;36024;47.974;16.398;2024-01-30T02:56:52;26.17;;;19.03;;
50126;SDS011;36024;47.974;16.398;2024-01-30T02:59:20;25.23;;;17.73;;
50126;SDS011;36024;47.974;16.398;2024-01-30T03:01:47;25.10;;;18.20;;
50126;SDS011;36024;47.974;16.398;2024-01-30T03:04:19;24.70;;;18.50;;
50126;SDS011;36024;47.974;16.398;2024-01-30T03:06:46;29.93;;;19.07;;
50126;SDS011;36024;47.974;16.398;2024-01-30T03:09:20;25.33;;;18.20;;
50126;SDS011;36024;47.974;16.398;2024-01-30T03:11:48;25.80;;;18.43;;
50126;SDS011;36024;47.974;16.398;2024-01-30T03:14:20;24.77;;;18.17;;
50126;SDS011;36024;47.974;16.398;2024-01-30T03:16:48;25.87;;;19.37;;
50126;SDS011;36024;47.974;16.398;2024-01-30T03:19:15;24.03;;;18.67;;
50126;SDS011;36024;47.974;16.398;2024-01-30T03:21:42;26.23;;;18.43;;
50126;SDS011;36024;47.974;16.398;2024-01-30T03:24:08;24.40;;;17.93;;
50126;SDS011;36024;47.974;16.398;2024-01-30T03:26:35;28.60;;;19.17;;
50126;SDS011;36024;47.974;16.398;2024-01-30T03:29:04;23.90;;;18.07;;
50126;SDS011;36024;47.974;16.398;2024-01-30T03:31:33;25.17;;;17.67;;
50126;SDS011;36024;47.974;16.398;2024-01-30T03:34:00;24.93;;;17.93;;
50126;SDS011;36024;47.974;16.398;2024-01-30T03:36:30;22.77;;;17.90;;
50126;SDS011;36024;47.974;16.398;2024-01-30T03:38:59;24.50;;;18.53;;
50126;SDS011;36024;47.974;16.398;2024-01-30T03:41:28;24.60;;;18.17;;
50126;SDS011;36024;47.974;16.398;2024-01-30T03:43:54;25.03;;;18.60;;
50126;SDS011;36024;47.974;16.398;2024-01-30T03:46:21;26.00;;;17.53;;
50126;SDS011;36024;47.974;16.398;2024-01-30T03:48:51;23.57;;;17.57;;
50126;SDS011;36024;47.974;16.398;2024-01-30T03:51:18;28.80;;;18.33;;
50126;SDS011;36024;47.974;16.398;2024-01-30T03:53:45;27.77;;;18.80;;
50126;SDS011;36024;47.974;16.398;2024-01-30T03:56:14;22.23;;;18.23;;
50126;SDS011;36024;47.974;16.398;2024-01-30T03:58:41;23.07;;;17.67;;
50126;SDS011;36024;47.974;16.398;2024-01-30T04:01:21;30.53;;;20.10;;
50126;SDS011;36024;47.974;16.398;2024-01-30T04:03:50;24.97;;;18.60;;
50126;SDS011;36024;47.974;16.398;2024-01-30T04:06:26;27.40;;;18.63;;
50126;SDS011;36024;47.974;16.398;2024-01-30T04:08:53;21.90;;;16.77;;
50126;SDS011;36024;47.974;16.398;2024-01-30T04:11:23;22.97;;;17.30;;
50126;SDS011;36024;47.974;16.398;2024-01-30T04:13:49;24.67;;;17.40;;
50126;SDS011;36024;47.974;16.398;2024-01-30T04:16:22;23.80;;;17.67;;
50126;SDS011;36024;47.974;16.398;2024-01-30T04:18:50;25.70;;;18.00;;
50126;SDS011;36024;47.974;16.398;2024-01-30T04:21:22;24.90;;;18.37;;
50126;SDS011;36024;47.974;16.398;2024-01-30T04:23:50;24.70;;;18.20;;
50126;SDS011;36024;47.974;16.398;2024-01-30T04:26:18;23.87;;;17.77;;
50126;SDS011;36024;47.974;16.398;2024-01-30T04:28:45;24.20;;;17.87;;
50126;SDS011;36024;47.974;16.398;2024-01-30T04:31:11;24.33;;;19.10;;
50126;SDS011;36024;47.974;16.398;2024-01-30T04:33:46;27.83;;;18.60;;
50126;SDS011;36024;47.974;16.398;2024-01-30T04:36:15;25.13;;;17.97;;
50126;SDS011;36024;47.974;16.398;2024-01-30T04:38:42;24.10;;;17.10;;
50126;SDS011;36024;47.974;16.398;2024-01-30T04:41:08;26.17;;;18.80;;
50126;SDS011;36024;47.974;16.398;2024-01-30T04:43:35;26.13;;;17.97;;
50126;SDS011;36024;47.974;16.398;2024-01-30T04:46:02;27.73;;;17.97;;
50126;SDS011;36024;47.974;16.398;2024-01-30T04:48:31;25.27;;;17.33;;
50126;SDS011;36024;47.974;16.398;2024-01-30T04:51:00;25.90;;;18.00;;
50126;SDS011;36024;47.974;16.398;2024-01-30T04:53:31;25.57;;;18.43;;
50126;SDS011;36024;47.974;16.398;2024-01-30T04:55:58;25.77;;;18.33;;
50126;SDS011;36024;47.974;16.398;2024-01-30T04:58:28;25.00;;;17.87;;
50126;SDS011;36024;47.974;16.398;2024-01-30T05:00:56;22.47;;;17.87;;
50126;SDS011;36024;47.974;16.398;2024-01-30T05:03:26;24.90;;;17.33;;
50126;SDS011;36024;47.974;16.398;2024-01-30T05:05:56;27.93;;;19.20;;
50126;SDS011;36024;47.974;16.398;2024-01-30T05:08:23;26.20;;;18.83;;
50126;SDS011;36024;47.974;16.398;2024-01-30T05:10:49;28.47;;;19.43;;
50126;SDS011;36024;47.974;16.398;2024-01-30T05:13:16;24.80;;;18.53;;
50126;SDS011;36024;47.974;16.398;2024-01-30T05:15:44;25.40;;;17.83;;
50126;SDS011;36024;47.974;16.398;2024-01-30T05:18:11;24.60;;;16.73;;
50126;SDS011;36024;47.974;16.398;2024-01-30T05:20:38;26.20;;;18.07;;
50126;SDS011;36024;47.974;16.398;2024-01-30T05:23:07;25.33;;;17.13;;
50126;SDS011;36024;47.974;16.398;2024-01-30T05:25:34;26.30;;;18.67;;
50126;SDS011;36024;47.974;16.398;2024-01-30T05:28:07;31.13;;;18.87;;
50126;SDS011;36024;47.974;16.398;2024-01-30T05:30:37;24.67;;;18.03;;
50126;SDS011;36024;47.974;16.398;2024-01-30T05:33:06;25.33;;;16.97;;
50126;SDS011;36024;47.974;16.398;2024-01-30T05:35:36;25.30;;;17.80;;
50126;SDS011;36024;47.974;16.398;2024-01-30T05:38:05;27.03;;;17.53;;
50126;SDS011;36024;47.974;16.398;2024-01-30T05:40:34;25.43;;;17.10;;
50126;SDS011;36024;47.974;16.398;2024-01-30T05:43:04;25.07;;;17.17;;
50126;SDS011;36024;47.974;16.398;2024-01-30T05:45:31;23.40;;;16.77;;
50126;SDS011;36024;47.974;16.398;2024-01-30T05:48:09;23.33;;;16.63;;
50126;SDS011;36024;47.974;16.398;2024-01-30T05:50:36;24.97;;;16.63;;
50126;SDS011;36024;47.974;16.398;2024-01-30T05:53:04;22.97;;;15.93;;
50126;SDS011;36024;47.974;16.398;2024-01-30T05:55:31;24.57;;;17.57;;
50126;SDS011;36024;47.974;16.398;2024-01-30T05:58:00;24.10;;;16.60;;
50126;SDS011;36024;47.974;16.398;2024-01-30T06:00:26;21.83;;;16.07;;
50126;SDS011;36024;47.974;16.398;2024-01-30T06:02:54;24.07;;;16.37;;
50126;SDS011;36024;47.974;16.398;2024-01-30T06:05:21;23.43;;;16.87;;
50126;SDS011;36024;47.974;16.398;2024-01-30T06:07:51;25.30;;;16.43;;
50126;SDS011;36024;47.974;16.398;2024-01-30T06:10:19;24.13;;;16.03;;
50126;SDS011;36024;47.974;16.398;2024-01-30T06:12:45;24.27;;;17.80;;
50126;SDS011;36024;47.974;16.398;2024-01-30T06:15:15;24.57;;;16.70;;
50126;SDS011;36024;47.974;16.398;2024-01-30T06:17:45;25.40;;;17.47;;
50126;SDS011;36024;47.974;16.398;2024-01-30T06:20:11;24.23;;;17.23;;
50126;SDS011;36024;47.974;16.398;2024-01-30T06:22:41;27.20;;;17.47;;
50126;SDS011;36024;47.974;16.398;2024-01-30T06:25:09;28.57;;;18.33;;
50126;SDS011;36024;47.974;16.398;2024-01-30T06:27:40;23.83;;;17.87;;
50126;SDS011;36024;47.974;16.398;2024-01-30T06:30:07;23.63;;;18.33;;
50126;SDS011;36024;47.974;16.398;2024-01-30T06:32:40;65.77;;;39.63;;
50126;SDS011;36024;47.974;16.398;2024-01-30T06:35:07;29.47;;;20.90;;
50126;SDS011;36024;47.974;16.398;2024-01-30T06:37:38;29.63;;;19.27;;
50126;SDS011;36024;47.974;16.398;2024-01-30T06:40:07;26.93;;;18.37;;
50126;SDS011;36024;47.974;16.398;2024-01-30T06:42:37;25.33;;;17.40;;
50126;SDS011;36024;47.974;16.398;2024-01-30T06:45:05;24.87;;;17.60;;
50126;SDS011;36024;47.974;16.398;2024-01-30T06:47:36;25.67;;;17.77;;
50126;SDS011;36024;47.974;16.398;2024-01-30T06:50:03;23.63;;;18.23;;
50126;SDS011;36024;47.974;16.398;2024-01-30T06:52:31;23.90;;;17.07;;
50126;SDS011;36024;47.974;16.398;2024-01-30T06:54:58;29.57;;;18.10;;
50126;SDS011;36024;47.974;16.398;2024-01-30T06:57:27;26.07;;;17.43;;
50126;SDS011;36024;47.974;16.398;2024-01-30T06:59:57;28.20;;;17.87;;
50126;SDS011;36024;47.974;16.398;2024-01-30T07:02:24;24.57;;;17.53;;
50126;SDS011;36024;47.974;16.398;2024-01-30T07:04:54;26.63;;;18.20;;
50126;SDS011;36024;47.974;16.398;2024-01-30T07:07:31;25.40;;;18.47;;
50126;SDS011;36024;47.974;16.398;2024-01-30T07:09:59;24.77;;;18.87;;
50126;SDS011;36024;47.974;16.398;2024-01-30T07:12:25;27.27;;;19.23;;
50126;SDS011;36024;47.974;16.398;2024-01-30T07:14:52;26.03;;;19.57;;
50126;SDS011;36024;47.974;16.398;2024-01-30T07:17:25;26.07;;;18.83;;
50126;SDS011;36024;47.974;16.398;2024-01-30T07:19:55;24.70;;;18.07;;
50126;SDS011;36024;47.974;16.398;2024-01-30T07:22:22;23.77;;;18.17;;
50126;SDS011;36024;47.974;16.398;2024-01-30T07:24:48;23.07;;;18.50;;
50126;SDS011;36024;47.974;16.398;2024-01-30T07:27:16;25.20;;;17.20;;
50126;SDS011;36024;47.974;16.398;2024-01-30T07:29:47;23.53;;;18.47;;
50126;SDS011;36024;47.974;16.398;2024-01-30T07:32:29;24.17;;;16.97;;
50126;SDS011;36024;47.974;16.398;2024-01-30T07:34:57;27.40;;;18.07;;
50126;SDS011;36024;47.974;16.398;2024-01-30T07:37:37;26.30;;;18.10;;
50126;SDS011;36024;47.974;16.398;2024-01-30T07:40:08;21.97;;;17.87;;
50126;SDS011;36024;47.974;16.398;2024-01-30T07:42:35;27.43;;;17.43;;
50126;SDS011;36024;47.974;16.398;2024-01-30T07:45:02;27.37;;;18.20;;
50126;SDS011;36024;47.974;16.398;2024-01-30T07:47:33;24.70;;;17.93;;
50126;SDS011;36024;47.974;16.398;2024-01-30T07:50:00;26.30;;;18.93;;
50126;SDS011;36024;47.974;16.398;2024-01-30T07:52:26;25.70;;;18.90;;
50126;SDS011;36024;47.974;16.398;2024-01-30T07:54:57;26.70;;;19.10;;
50126;SDS011;36024;47.974;16.398;2024-01-30T07:57:24;26.93;;;19.27;;
50126;SDS011;36024;47.974;16.398;2024-01-30T07:59:51;25.03;;;18.67;;
50126;SDS011;36024;47.974;16.398;2024-01-30T08:02:32;26.50;;;19.37;;
50126;SDS011;36024;47.974;16.398;2024-01-30T08:05:00;29.80;;;19.60;;
50126;SDS011;36024;47.974;16.398;2024-01-30T08:07:29;27.17;;;19.33;;
50126;SDS011;36024;47.974;16.398;2024-01-30T08:10:21;25.40;;;18.77;;
50126;SDS011;36024;47.974;16.398;2024-01-30T08:12:50;26.47;;;18.53;;
50126;SDS011;36024;47.974;16.398;2024-01-30T08:15:17;26.23;;;19.13;;
50126;SDS011;36024;47.974;16.398;2024-01-30T08:17:43;25.27;;;18.23;;
50126;SDS011;36024;47.974;16.398;2024-01-30T08:20:11;22.97;;;18.53;;
50126;SDS011;36024;47.974;16.398;2024-01-30T08:22:41;26.10;;;19.13;;
50126;SDS011;36024;47.974;16.398;2024-01-30T08:25:10;23.77;;;19.20;;
50126;SDS011;36024;47.974;16.398;2024-01-30T08:27:36;29.43;;;19.83;;
50126;SDS011;36024;47.974;16.398;2024-01-30T08:30:13;27.80;;;19.47;;
50126;SDS011;36024;47.974;16.398;2024-01-30T08:32:44;25.40;;;19.37;;
50126;SDS011;36024;47.974;16.398;2024-01-30T08:35:16;26.90;;;19.80;;
50126;SDS011;36024;47.974;16.398;2024-01-30T08:37:47;26.40;;;20.17;;
50126;SDS011;36024;47.974;16.398;2024-01-30T08:40:15;27.27;;;19.47;;
50126;SDS011;36024;47.974;16.398;2024-01-30T08:42:44;26.93;;;19.83;;
50126;SDS011;36024;47.974;16.398;2024-01-30T08:45:14;25.30;;;18.87;;
50126;SDS011;36024;47.974;16.398;2024-01-30T08:47:43;26.63;;;18.60;;
50126;SDS011;36024;47.974;16.398;2024-01-30T08:50:10;26.70;;;19.23;;
50126;SDS011;36024;47.974;16.398;2024-01-30T08:52:37;27.37;;;19.73;;
50126;SDS011;36024;47.974;16.398;2024-01-30T08:55:06;24.83;;;19.43;;
50126;SDS011;36024;47.974;16.398;2024-01-30T08:57:36;24.93;;;18.93;;
50126;SDS011;36024;47.974;16.398;2024-01-30T09:00:08;27.90;;;19.40;;
50126;SDS011;36024;47.974;16.398;2024-01-30T09:02:37;24.47;;;17.83;;
50126;SDS011;36024;47.974;16.398;2024-01-30T09:05:07;25.07;;;18.57;;
50126;SDS011;36024;47.974;16.398;2024-01-30T09:07:45;21.67;;;17.37;;
50126;SDS011;36024;47.974;16.398;2024-01-30T09:10:17;23.30;;;18.00;;
50126;SDS011;36024;47.974;16.398;2024-01-30T09:12:51;21.07;;;17.70;;
50126;SDS011;36024;47.974;16.398;2024-01-30T09:15:18;24.23;;;17.47;;
50126;SDS011;36024;47.974;16.398;2024-01-30T09:17:50;23.27;;;18.60;;
50126;SDS011;36024;47.974;16.398;2024-01-30T09:20:19;22.67;;;18.20;;
50126;SDS011;36024;47.974;16.398;2024-01-30T09:22:48;22.50;;;17.67;;
50126;SDS011;36024;47.974;16.398;2024-01-30T09:25:15;21.93;;;17.47;;
50126;SDS011;36024;47.974;16.398;2024-01-30T09:28:05;22.63;;;16.87;;
50126;SDS011;36024;47.974;16.398;2024-01-30T09:30:35;24.77;;;17.17;;
50126;SDS011;36024;47.974;16.398;2024-01-30T09:33:07;20.10;;;16.40;;
50126;SDS011;36024;47.974;16.398;2024-01-30T09:35:33;22.50;;;16.97;;
50126;SDS011;36024;47.974;16.398;2024-01-30T09:38:02;19.67;;;15.67;;
50126;SDS011;36024;47.974;16.398;2024-01-30T09:40:30;18.87;;;15.57;;
50126;SDS011;36024;47.974;16.398;2024-01-30T09:42:56;19.90;;;15.80;;
50126;SDS011;36024;47.974;16.398;2024-01-30T09:45:25;18.23;;;15.60;;
50126;SDS011;36024;47.974;16.398;2024-01-30T09:47:58;17.40;;;14.50;;
50126;SDS011;36024;47.974;16.398;2024-01-30T09:50:30;20.13;;;15.37;;
50126;SDS011;36024;47.974;16.398;2024-01-30T09:52:57;18.03;;;14.17;;
50126;SDS011;36024;47.974;16.398;2024-01-30T09:55:25;19.70;;;14.17;;
50126;SDS011;36024;47.974;16.398;2024-01-30T09:57:54;19.43;;;15.00;;
50126;SDS011;36024;47.974;16.398;2024-01-30T10:00:21;18.77;;;14.80;;
50126;SDS011;36024;47.974;16.398;2024-01-30T10:02:53;18.03;;;14.47;;
50126;SDS011;36024;47.974;16.398;2024-01-30T10:05:20;15.83;;;13.70;;
50126;SDS011;36024;47.974;16.398;2024-01-30T10:07:55;17.47;;;13.50;;
50126;SDS011;36024;47.974;16.398;2024-01-30T10:10:31;15.80;;;13.00;;
50126;SDS011;36024;47.974;16.398;2024-01-30T10:12:58;18.37;;;13.00;;
50126;SDS011;36024;47.974;16.398;2024-01-30T10:15:30;15.53;;;12.83;;
50126;SDS011;36024;47.974;16.398;2024-01-30T10:17:57;16.73;;;13.30;;
50126;SDS011;36024;47.974;16.398;2024-01-30T10:20:26;15.43;;;12.23;;
50126;SDS011;36024;47.974;16.398;2024-01-30T10:22:56;16.37;;;12.63;;
50126;SDS011;36024;47.974;16.398;2024-01-30T10:25:27;16.33;;;13.60;;
50126;SDS011;36024;47.974;16.398;2024-01-30T10:27:55;18.97;;;14.03;;
50126;SDS011;36024;47.974;16.398;2024-01-30T10:30:24;16.87;;;13.37;;
50126;SDS011;36024;47.974;16.398;2024-01-30T10:32:51;15.90;;;13.07;;
50126;SDS011;36024;47.974;16.398;2024-01-30T10:35:21;18.07;;;13.53;;
50126;SDS011;36024;47.974;16.398;2024-01-30T10:37:48;15.60;;;12.80;;
50126;SDS011;36024;47.974;16.398;2024-01-30T10:40:24;16.30;;;13.00;;
50126;SDS011;36024;47.974;16.398;2024-01-30T10:42:57;18.10;;;12.50;;
50126;SDS011;36024;47.974;16.398;2024-01-30T10:45:30;15.10;;;12.40;;
50126;SDS011;36024;47.974;16.398;2024-01-30T10:47:59;13.90;;;12.23;;
50126;SDS011;36024;47.974;16.398;2024-01-30T10:50:42;15.73;;;12.73;;
50126;SDS011;36024;47.974;16.398;2024-01-30T10:53:19;16.57;;;12.50;;
50126;SDS011;36024;47.974;16.398;2024-01-30T10:55:49;14.73;;;11.57;;
50126;SDS011;36024;47.974;16.398;2024-01-30T10:58:20;14.43;;;12.30;;
50126;SDS011;36024;47.974;16.398;2024-01-30T11:00:57;17.60;;;12.97;;
50126;SDS011;36024;47.974;16.398;2024-01-30T11:03:30;14.23;;;12.03;;
50126;SDS011;36024;47.974;16.398;2024-01-30T11:06:00;15.93;;;12.90;;
50126;SDS011;36024;47.974;16.398;2024-01-30T11:08:33;15.60;;;12.13;;
50126;SDS011;36024;47.974;16.398;2024-01-30T11:11:03;14.93;;;12.13;;
50126;SDS011;36024;47.974;16.398;2024-01-30T11:13:35;14.63;;;12.47;;
50126;SDS011;36024;47.974;16.398;2024-01-30T11:16:11;14.63;;;12.40;;
50126;SDS011;36024;47.974;16.398;2024-01-30T11:18:39;14.93;;;12.67;;
50126;SDS011;36024;47.974;16.398;2024-01-30T11:21:06;12.93;;;11.57;;
50126;SDS011;36024;47.974;16.398;2024-01-30T11:23:33;17.67;;;12.40;;
50126;SDS011;36024;47.974;16.398;2024-01-30T11:26:01;14.33;;;11.50;;
50126;SDS011;36024;47.974;16.398;2024-01-30T11:28:33;12.90;;;11.50;;
50126;SDS011;36024;47.974;16.398;2024-01-30T11:31:04;13.53;;;10.93;;
50126;SDS011;36024;47.974;16.398;2024-01-30T11:33:31;14.50;;;11.90;;
50126;SDS011;36024;47.974;16.398;2024-01-30T11:36:00;12.17;;;10.93;;
50126;SDS011;36024;47.974;16.398;2024-01-30T11:38:28;12.60;;;11.10;;
50126;SDS011;36024;47.974;16.398;2024-01-30T11:40:57;12.83;;;11.10;;
50126;SDS011;36024;47.974;16.398;2024-01-30T11:43:26;13.47;;;11.20;;
50126;SDS011;36024;47.974;16.398;2024-01-30T11:45:53;12.83;;;11.43;;
50126;SDS011;36024;47.974;16.398;2024-01-30T11:48:36;12.63;;;11.13;;
50126;SDS011;36024;47.974;16.398;2024-01-30T11:51:16;11.97;;;10.73;;
50126;SDS011;36024;47.974;16.398;2024-01-30T11:53:49;12.13;;;10.77;;
50126;SDS011;36024;47.974;16.398;2024-01-30T11:56:16;14.50;;;12.17;;
50126;SDS011;36024;47.974;16.398;2024-01-30T11:58:55;34.77;;;27.10;;
50126;SDS011;36024;47.974;16.398;2024-01-30T12:01:23;14.63;;;12.60;;
50126;SDS011;36024;47.974;16.398;2024-01-30T12:03:50;12.33;;;10.80;;
50126;SDS011;36024;47.974;16.398;2024-01-30T12:06:18;12.67;;;10.23;;
50126;SDS011;36024;47.974;16.398;2024-01-30T12:08:57;11.63;;;10.13;;
50126;SDS011;36024;47.974;16.398;2024-01-30T12:11:45;12.50;;;10.70;;
50126;SDS011;36024;47.974;16.398;2024-01-30T12:14:16;11.30;;;9.63;;
50126;SDS011;36024;47.974;16.398;2024-01-30T12:16:47;13.07;;;10.33;;
50126;SDS011;36024;47.974;16.398;2024-01-30T12:19:22;12.63;;;10.03;;
50126;SDS011;36024;47.974;16.398;2024-01-30T12:21:54;13.13;;;11.17;;
50126;SDS011;36024;47.974;16.398;2024-01-30T12:24:22;10.33;;;8.93;;
50126;SDS011;36024;47.974;16.398;2024-01-30T12:26:51;11.53;;;9.50;;
50126;SDS011;36024;47.974;16.398;2024-01-30T12:29:22;10.80;;;8.63;;
50126;SDS011;36024;47.974;16.398;2024-01-30T12:31:52;10.70;;;8.80;;
50126;SDS011;36024;47.974;16.398;2024-01-30T12:34:27;9.37;;;8.37;;
50126;SDS011;36024;47.974;16.398;2024-01-30T12:36:55;9.13;;;7.90;;
50126;SDS011;36024;47.974;16.398;2024-01-30T12:39:21;9.20;;;8.10;;
50126;SDS011;36024;47.974;16.398;2024-01-30T12:41:54;10.43;;;8.33;;
50126;SDS011;36024;47.974;16.398;2024-01-30T12:44:27;9.60;;;8.20;;
50126;SDS011;36024;47.974;16.398;2024-01-30T12:46:59;10.27;;;9.13;;
50126;SDS011;36024;47.974;16.398;2024-01-30T12:49:25;13.17;;;11.83;;
50126;SDS011;36024;47.974;16.398;2024-01-30T12:51:52;10.50;;;8.10;;
50126;SDS011;36024;47.974;16.398;2024-01-30T12:54:29;9.07;;;8.10;;
50126;SDS011;36024;47.974;16.398;2024-01-30T12:56:58;8.47;;;7.57;;
50126;SDS011;36024;47.974;16.398;2024-01-30T12:59:25;9.40;;;7.47;;
50126;SDS011;36024;47.974;16.398;2024-01-30T13:01:52;8.47;;;7.53;;
50126;SDS011;36024;47.974;16.398;2024-01-30T13:04:20;8.33;;;7.00;;
50126;SDS011;36024;47.974;16.398;2024-01-30T13:06:50;9.00;;;7.30;;
50126;SDS011;36024;47.974;16.398;2024-01-30T13:09:17;8.03;;;6.93;;
50126;SDS011;36024;47.974;16.398;2024-01-30T13:11:49;8.27;;;7.37;;
50126;SDS011;36024;47.974;16.398;2024-01-30T13:14:20;9.07;;;7.80;;
50126;SDS011;36024;47.974;16.398;2024-01-30T13:16:50;12.30;;;7.47;;
50126;SDS011;36024;47.974;16.398;2024-01-30T13:19:19;8.53;;;7.47;;
50126;SDS011;36024;47.974;16.398;2024-01-30T13:21:48;13.10;;;11.27;;
50126;SDS011;36024;47.974;16.398;2024-01-30T13:24:16;8.37;;;7.47;;
50126;SDS011;36024;47.974;16.398;2024-01-30T13:26:50;8.77;;;7.13;;
50126;SDS011;36024;47.974;16.398;2024-01-30T13:29:18;8.47;;;7.40;;
50126;SDS011;36024;47.974;16.398;2024-01-30T13:31:45;9.80;;;7.50;;
50126;SDS011;36024;47.974;16.398;2024-01-30T13:34:15;9.33;;;7.90;;
50126;SDS011;36024;47.974;16.398;2024-01-30T13:36:42;9.80;;;7.87;;
50126;SDS011;36024;47.974;16.398;2024-01-30T13:39:19;8.10;;;7.30;;
50126;SDS011;36024;47.974;16.398;2024-01-30T13:41:49;9.67;;;7.53;;
50126;SDS011;36024;47.974;16.398;2024-01-30T13:44:16;9.20;;;7.10;;
50126;SDS011;36024;47.974;16.398;2024-01-30T13:46:44;9.87;;;7.73;;
50126;SDS011;36024;47.974;16.398;2024-01-30T13:49:16;9.90;;;7.60;;
50126;SDS011;36024;47.974;16.398;2024-01-30T13:51:46;8.23;;;7.43;;
50126;SDS011;36024;47.974;16.398;2024-01-30T13:54:14;8.73;;;7.53;;
50126;SDS011;36024;47.974;16.398;2024-01-30T13:56:44;8.57;;;7.67;;
50126;SDS011;36024;47.974;16.398;2024-01-30T13:59:12;8.43;;;7.57;;
50126;SDS011;36024;47.974;16.398;2024-01-30T14:01:42;8.67;;;7.30;;
50126;SDS011;36024;47.974;16.398;2024-01-30T14:04:15;10.17;;;8.30;;
50126;SDS011;36024;47.974;16.398;2024-01-30T14:06:42;9.60;;;7.63;;
50126;SDS011;36024;47.974;16.398;2024-01-30T14:09:22;8.60;;;7.63;;
50126;SDS011;36024;47.974;16.398;2024-01-30T14:11:50;9.93;;;7.80;;
50126;SDS011;36024;47.974;16.398;2024-01-30T14:14:16;11.83;;;8.53;;
50126;SDS011;36024;47.974;16.398;2024-01-30T14:16:43;10.63;;;8.53;;
50126;SDS011;36024;47.974;16.398;2024-01-30T14:19:09;12.43;;;11.13;;
50126;SDS011;36024;47.974;16.398;2024-01-30T14:21:36;10.43;;;8.20;;
50126;SDS011;36024;47.974;16.398;2024-01-30T14:24:03;11.60;;;9.70;;